createdAt,value
2019-01-02T00:03:33.196Z,6.50
2019-01-02T00:06:22.076Z,10.97
2019-01-02T00:09:11.181Z,7.87
2019-01-02T00:11:53.018Z,6.37
2019-01-02T00:14:41.948Z,8.30
2019-01-02T00:17:30.930Z,8.40
2019-01-02T00:20:00.691Z,10.70
2019-01-02T00:22:49.534Z,9.10
2019-01-02T00:25:38.409Z,8.40
2019-01-02T00:28:28.989Z,9.77
2019-01-02T00:31:17.803Z,10.33
2019-01-02T00:34:06.634Z,10.93
2019-01-02T00:36:55.486Z,8.40
2019-01-02T00:39:44.679Z,8.43
2019-01-02T00:42:33.482Z,6.97
2019-01-02T00:45:23.358Z,7.57
2019-01-02T00:48:12.833Z,8.00
2019-01-02T00:51:03.376Z,9.07
2019-01-02T00:53:52.195Z,7.17
2019-01-02T00:56:41.115Z,10.07
2019-01-02T00:59:31.692Z,7.43
2019-01-02T01:02:13.492Z,9.87
2019-01-02T01:05:02.365Z,9.27
2019-01-02T01:07:52.946Z,8.10
2019-01-02T01:10:41.800Z,6.50
2019-01-02T01:13:30.617Z,10.77
2019-01-02T01:16:21.190Z,8.33
2019-01-02T01:19:10.054Z,9.80
2019-01-02T01:21:58.900Z,10.17
2019-01-02T01:24:47.744Z,13.93
2019-01-02T01:27:31.225Z,10.57
2019-01-02T01:30:20.451Z,9.77
2019-01-02T01:33:09.254Z,9.43
2019-01-02T01:35:50.533Z,9.80
2019-01-02T01:38:39.522Z,9.90
2019-01-02T01:41:28.432Z,8.00
2019-01-02T01:44:17.634Z,8.63
2019-01-02T01:47:06.500Z,7.63
2019-01-02T01:49:55.385Z,13.23
2019-01-02T01:52:44.222Z,6.60
2019-01-02T01:55:33.031Z,6.17
2019-01-02T01:58:23.674Z,7.87
2019-01-02T02:01:14.200Z,8.80
2019-01-02T02:04:03.022Z,9.57
2019-01-02T02:06:53.654Z,9.27
2019-01-02T02:09:35.242Z,7.83
2019-01-02T02:12:24.053Z,10.87
2019-01-02T02:15:14.681Z,11.00
2019-01-02T02:18:03.664Z,9.40
2019-01-02T02:20:45.170Z,10.57
2019-01-02T02:23:14.666Z,6.73
2019-01-02T02:26:05.286Z,7.93
2019-01-02T02:28:55.843Z,7.63
2019-01-02T02:31:37.918Z,8.43
2019-01-02T02:34:26.761Z,10.37
2019-01-02T02:37:15.620Z,13.27
2019-01-02T02:40:25.355Z,6.97
2019-01-02T02:43:14.219Z,7.70
2019-01-02T02:46:03.078Z,7.13
2019-01-02T02:48:53.638Z,8.43
2019-01-02T02:51:44.198Z,6.73
2019-01-02T02:54:33.216Z,9.63
2019-01-02T02:57:22.062Z,4.20
2019-01-02T03:00:31.871Z,8.63
2019-01-02T03:03:22.454Z,8.00
2019-01-02T03:06:11.301Z,7.70
2019-01-02T03:09:00.138Z,9.53
2019-01-02T03:11:41.741Z,9.53
2019-01-02T03:14:30.540Z,7.30
2019-01-02T03:17:19.756Z,10.10
2019-01-02T03:20:29.594Z,9.67
2019-01-02T03:23:18.449Z,6.60
2019-01-02T03:26:08.992Z,9.30
2019-01-02T03:28:57.822Z,7.27
2019-01-02T03:31:48.330Z,10.33
2019-01-02T03:34:37.416Z,8.90
2019-01-02T03:37:26.288Z,8.17
2019-01-02T03:40:15.273Z,7.47
2019-01-02T03:43:04.189Z,8.03
2019-01-02T03:45:53.009Z,9.13
2019-01-02T03:48:41.887Z,7.47
2019-01-02T03:51:30.789Z,6.53
2019-01-02T03:54:19.602Z,9.50
2019-01-02T03:57:08.522Z,8.30
2019-01-02T03:59:57.336Z,10.47
2019-01-02T04:02:46.234Z,8.47
2019-01-02T04:05:35.084Z,11.77
2019-01-02T04:08:23.960Z,9.27
2019-01-02T04:11:12.832Z,8.57
2019-01-02T04:13:54.694Z,8.93
2019-01-02T04:16:43.566Z,5.50
2019-01-02T04:19:32.385Z,9.10
2019-01-02T04:22:21.219Z,6.43
2019-01-02T04:25:10.047Z,7.40
2019-01-02T04:27:58.843Z,7.83
2019-01-02T04:30:47.672Z,6.57
2019-01-02T04:33:36.679Z,9.73
2019-01-02T04:36:25.480Z,9.07
2019-01-02T04:39:14.351Z,15.03
2019-01-02T04:42:03.181Z,13.20
2019-01-02T04:44:52.028Z,11.13
2019-01-02T04:47:41.099Z,8.47
2019-01-02T04:50:29.942Z,10.93
2019-01-02T04:53:18.735Z,9.47
2019-01-02T04:56:07.580Z,8.93
2019-01-02T04:58:56.383Z,8.60
2019-01-02T05:01:45.221Z,7.47
2019-01-02T05:04:34.082Z,7.80
2019-01-02T05:07:22.894Z,11.70
2019-01-02T05:13:20.977Z,9.13
2019-01-02T05:16:09.780Z,5.87
2019-01-02T05:18:58.695Z,11.97
2019-01-02T05:21:40.814Z,9.53
2019-01-02T05:24:29.609Z,11.03
2019-01-02T05:27:18.445Z,6.93
2019-01-02T05:30:26.554Z,14.20
2019-01-02T05:33:15.419Z,10.27
2019-01-02T05:36:04.291Z,10.47
2019-01-02T05:38:53.135Z,7.50
2019-01-02T05:41:41.984Z,13.37
2019-01-02T05:44:30.817Z,12.27
2019-01-02T05:47:19.628Z,11.10
2019-01-02T05:50:09.509Z,9.20
2019-01-02T05:52:58.339Z,9.97
2019-01-02T05:55:47.251Z,12.47
2019-01-02T05:58:36.178Z,10.80
2019-01-02T06:01:24.998Z,10.03
2019-01-02T06:04:13.824Z,9.50
2019-01-02T06:07:02.652Z,11.93
2019-01-02T06:09:51.485Z,7.40
2019-01-02T06:12:40.303Z,10.70
2019-01-02T06:15:22.138Z,9.93
2019-01-02T06:18:10.978Z,10.53
2019-01-02T06:20:59.776Z,13.00
2019-01-02T06:23:48.695Z,10.23
2019-01-02T06:26:37.509Z,10.17
2019-01-02T06:29:26.334Z,7.70
2019-01-02T06:32:15.203Z,8.57
2019-01-02T06:34:57.359Z,9.97
2019-01-02T06:37:46.255Z,7.93
2019-01-02T06:40:35.057Z,7.63
2019-01-02T06:43:23.902Z,9.37
2019-01-02T06:46:12.734Z,10.47
2019-01-02T06:49:01.525Z,12.63
2019-01-02T06:51:50.355Z,12.63
2019-01-02T06:54:39.199Z,11.83
2019-01-02T06:57:27.975Z,9.23
2019-01-02T07:00:37.741Z,11.03
2019-01-02T07:03:26.564Z,8.10
2019-01-02T07:06:15.364Z,12.83
2019-01-02T07:09:24.951Z,10.20
2019-01-02T07:12:13.776Z,6.53
2019-01-02T07:14:55.701Z,4.87
2019-01-02T07:17:44.548Z,10.43
2019-01-02T07:20:33.470Z,9.57
2019-01-02T07:23:22.282Z,9.80
2019-01-02T07:25:51.820Z,8.50
2019-01-02T07:28:40.629Z,12.63
2019-01-02T07:31:29.458Z,10.83
2019-01-02T07:34:19.865Z,10.30
2019-01-02T07:37:29.737Z,11.07
2019-01-02T07:40:57.281Z,12.37
2019-01-02T07:44:24.803Z,8.83
2019-01-02T07:47:52.422Z,8.13
2019-01-02T07:51:19.922Z,9.77
2019-01-02T07:54:29.740Z,9.67
2019-01-02T07:57:57.257Z,11.27
2019-01-02T08:01:06.979Z,7.13
2019-01-02T08:04:34.490Z,8.93
2019-01-02T08:07:44.249Z,11.83
2019-01-02T08:11:11.733Z,8.23
2019-01-02T08:14:39.299Z,11.07
2019-01-02T08:17:49.043Z,9.47
2019-01-02T08:20:58.802Z,11.37
2019-01-02T08:24:08.551Z,9.53
2019-01-02T08:27:36.095Z,7.60
2019-01-02T08:31:03.599Z,10.17
2019-01-02T08:34:13.394Z,5.47
2019-01-02T08:37:40.931Z,6.40
2019-01-02T08:41:08.470Z,5.13
2019-01-02T08:44:35.977Z,7.60
2019-01-02T08:48:03.495Z,6.30
2019-01-02T08:51:30.990Z,7.30
2019-01-02T08:54:40.791Z,7.97
2019-01-02T08:58:08.276Z,5.70
2019-01-02T09:04:55.331Z,4.07
2019-01-02T09:08:05.099Z,7.90
2019-01-02T09:11:14.861Z,6.13
2019-01-02T09:14:42.346Z,8.60
2019-01-02T09:18:09.870Z,9.90
2019-01-02T09:21:37.361Z,6.93
2019-01-02T09:28:24.310Z,3.77
2019-01-02T09:31:51.801Z,6.13
2019-01-02T09:35:01.605Z,8.17
2019-01-02T09:38:11.403Z,7.63
2019-01-02T09:41:21.148Z,8.63
2019-01-02T09:44:30.893Z,6.10
2019-01-02T09:47:58.489Z,7.20
2019-01-02T09:51:08.231Z,10.23
2019-01-02T09:58:16.894Z,6.47
2019-01-02T10:01:26.772Z,11.00
2019-01-02T10:04:36.476Z,8.43
2019-01-02T10:07:46.215Z,6.47
2019-01-02T10:10:56.033Z,5.70
2019-01-02T10:14:05.817Z,6.47
2019-01-02T10:16:49.636Z,6.83
2019-01-02T10:19:59.427Z,11.53
2019-01-02T10:23:26.983Z,4.47
2019-01-02T10:26:54.591Z,7.27
2019-01-02T10:30:26.323Z,5.37
2019-01-02T10:33:53.823Z,7.03
2019-01-02T10:37:21.322Z,8.10
2019-01-02T10:40:53.088Z,8.03
2019-01-02T10:44:02.931Z,9.53
2019-01-02T10:47:14.029Z,11.67
2019-01-02T10:50:41.624Z,8.43
2019-01-02T10:53:42.768Z,8.73
2019-01-02T10:56:52.509Z,6.90
2019-01-02T11:00:02.260Z,8.50
2019-01-02T11:03:29.798Z,8.53
2019-01-02T11:06:13.437Z,11.40
2019-01-02T11:09:23.242Z,10.00
2019-01-02T11:12:33.131Z,11.67
2019-01-02T11:15:42.871Z,10.73
2019-01-02T11:19:10.392Z,5.53
2019-01-02T11:22:20.717Z,10.07
2019-01-02T11:25:38.203Z,9.87
2019-01-02T11:28:48.027Z,9.63
2019-01-02T11:31:57.794Z,6.00
2019-01-02T11:35:27.019Z,10.67
2019-01-02T11:38:36.846Z,10.43
2019-01-02T11:41:46.620Z,7.53
2019-01-02T11:45:14.135Z,7.17
2019-01-02T11:48:03.052Z,10.10
2019-01-02T11:50:51.887Z,10.43
2019-01-02T11:53:40.722Z,8.40
2019-01-02T11:56:10.248Z,8.57
2019-01-02T11:58:59.195Z,11.27
2019-01-02T12:01:48.014Z,8.57
2019-01-02T12:04:17.533Z,10.93
2019-01-02T12:06:58.798Z,10.30
2019-01-02T12:09:28.363Z,9.27
2019-01-02T12:12:17.275Z,6.97
2019-01-02T12:15:27.080Z,8.93
2019-01-02T12:17:56.664Z,11.27
2019-01-02T12:20:45.465Z,7.30
2019-01-02T12:23:34.322Z,9.63
2019-01-02T12:26:23.154Z,6.43
2019-01-02T12:29:11.986Z,6.77
2019-01-02T12:32:00.804Z,6.57
2019-01-02T12:34:49.673Z,13.03
2019-01-02T12:37:19.244Z,9.50
2019-01-02T12:40:08.372Z,9.97
2019-01-02T12:42:57.226Z,10.57
2019-01-02T12:45:46.217Z,7.83
2019-01-02T12:48:15.868Z,8.23
2019-01-02T12:50:45.449Z,11.27
2019-01-02T12:53:34.279Z,11.50
2019-01-02T12:56:23.144Z,10.07
2019-01-02T12:59:32.881Z,8.10
2019-01-02T13:02:42.814Z,8.77
2019-01-02T13:05:52.552Z,7.53
2019-01-02T13:09:20.107Z,6.80
2019-01-02T13:12:29.899Z,8.67
2019-01-02T13:15:57.420Z,11.17
2019-01-02T13:19:07.238Z,9.80
2019-01-02T13:22:16.994Z,9.77
2019-01-02T13:25:26.761Z,9.77
2019-01-02T13:28:54.295Z,5.83
2019-01-02T13:32:04.032Z,7.57
2019-01-02T13:35:13.826Z,7.97
2019-01-02T13:38:23.599Z,6.70
2019-01-02T13:41:55.404Z,10.70
2019-01-02T13:45:05.129Z,7.43
2019-01-02T13:48:32.665Z,4.53
2019-01-02T13:51:42.402Z,5.37
2019-01-02T13:54:31.246Z,7.50
2019-01-02T13:57:20.047Z,7.73
2019-01-02T14:00:01.492Z,5.70
2019-01-02T14:02:50.392Z,5.43
2019-01-02T14:05:39.533Z,6.67
2019-01-02T14:08:28.422Z,6.87
2019-01-02T14:11:17.344Z,8.03
2019-01-02T14:14:06.277Z,3.90
2019-01-02T14:16:55.191Z,4.13
2019-01-02T14:19:44.006Z,4.67
2019-01-02T14:22:32.950Z,6.00
2019-01-02T14:25:21.773Z,5.47
2019-01-02T14:28:10.579Z,8.03
2019-01-02T14:30:59.443Z,4.97
2019-01-02T14:33:48.325Z,5.57
2019-01-02T14:36:37.242Z,7.43
2019-01-02T14:39:26.065Z,6.13
2019-01-02T14:42:14.928Z,9.83
2019-01-02T14:45:03.913Z,6.60
2019-01-02T14:47:52.750Z,7.90
2019-01-02T14:50:34.201Z,6.43
2019-01-02T14:53:03.690Z,5.40
2019-01-02T14:55:52.502Z,7.27
2019-01-02T14:58:41.343Z,5.13
2019-01-02T15:01:30.231Z,4.77
2019-01-02T15:04:19.120Z,8.03
2019-01-02T15:07:07.964Z,6.10
2019-01-02T15:09:56.906Z,5.37
2019-01-02T15:12:45.827Z,3.83
2019-01-02T15:15:34.658Z,6.60
2019-01-02T15:18:23.497Z,6.23
2019-01-02T15:21:12.308Z,7.93
2019-01-02T15:23:53.953Z,3.63
2019-01-02T15:26:42.770Z,7.47
2019-01-02T15:29:31.633Z,7.27
2019-01-02T15:32:01.145Z,3.83
2019-01-02T15:34:49.979Z,5.30
2019-01-02T15:37:38.843Z,5.37
2019-01-02T15:40:27.678Z,3.70
2019-01-02T15:43:16.613Z,5.87
2019-01-02T15:46:05.503Z,5.90
2019-01-02T15:48:54.319Z,7.20
2019-01-02T15:51:43.233Z,4.50
2019-01-02T15:54:32.091Z,2.43
2019-01-02T15:57:20.899Z,6.60
2019-01-02T15:59:50.493Z,5.13
2019-01-02T16:02:39.291Z,3.67
2019-01-02T16:05:28.151Z,3.30
2019-01-02T16:08:17.009Z,4.67
2019-01-02T16:10:46.496Z,4.10
2019-01-02T16:13:28.498Z,3.40
2019-01-02T16:16:17.293Z,4.10
2019-01-02T16:19:06.235Z,4.53
2019-01-02T16:21:55.112Z,4.33
2019-01-02T16:24:43.948Z,4.17
2019-01-02T16:27:13.482Z,5.63
2019-01-02T16:30:02.274Z,1.67
2019-01-02T16:32:51.130Z,6.37
2019-01-02T16:35:40.044Z,3.90
2019-01-02T16:38:28.901Z,3.37
2019-01-02T16:41:17.711Z,2.90
2019-01-02T16:44:06.577Z,3.03
2019-01-02T16:46:55.396Z,3.77
2019-01-02T16:49:44.334Z,2.00
2019-01-02T16:52:33.265Z,4.97
2019-01-02T16:55:22.053Z,5.60
2019-01-02T16:57:51.576Z,4.47
2019-01-02T17:00:40.684Z,7.13
2019-01-02T17:03:29.532Z,3.20
2019-01-02T17:06:18.413Z,2.57
2019-01-02T17:09:07.950Z,1.93
2019-01-02T17:11:37.447Z,6.33
2019-01-02T17:14:26.264Z,3.03
2019-01-02T17:16:55.843Z,1.77
2019-01-02T17:19:44.691Z,5.50
2019-01-02T17:22:33.613Z,4.83
2019-01-02T17:25:03.197Z,4.10
2019-01-02T17:27:52.029Z,3.60
2019-01-02T17:30:40.960Z,3.60
2019-01-02T17:33:29.881Z,4.77
2019-01-02T17:36:18.794Z,2.80
2019-01-02T17:39:07.905Z,5.57
2019-01-02T17:41:56.719Z,4.73
2019-01-02T17:44:45.597Z,6.60
2019-01-02T17:47:34.401Z,3.87
2019-01-02T17:50:23.270Z,5.93
2019-01-02T17:53:12.193Z,3.87
2019-01-02T17:56:01.046Z,3.63
2019-01-02T17:58:49.897Z,6.30
2019-01-02T18:01:38.781Z,2.77
2019-01-02T18:04:27.645Z,5.37
2019-01-02T18:07:16.498Z,2.43
2019-01-02T18:13:20.554Z,5.97
2019-01-02T18:16:09.470Z,4.07
2019-01-02T18:18:58.356Z,4.00
2019-01-02T18:21:47.158Z,3.20
2019-01-02T18:24:36.078Z,2.53
2019-01-02T18:27:17.448Z,4.03
2019-01-02T18:30:27.326Z,5.87
2019-01-02T18:32:56.802Z,3.43
2019-01-02T18:35:45.645Z,4.80
2019-01-02T18:38:15.105Z,3.50
2019-01-02T18:41:03.959Z,3.60
2019-01-02T18:43:52.853Z,6.33
2019-01-02T18:46:41.697Z,3.63
2019-01-02T18:49:30.580Z,3.77
2019-01-02T18:52:19.530Z,4.37
2019-01-02T18:55:08.488Z,3.10
2019-01-02T18:57:57.363Z,4.53
2019-01-02T19:00:46.258Z,3.97
2019-01-02T19:03:35.097Z,2.97
2019-01-02T19:06:23.984Z,3.30
2019-01-02T19:09:12.777Z,4.57
2019-01-02T19:12:01.765Z,4.93
2019-01-02T19:14:50.601Z,7.57
2019-01-02T19:17:39.482Z,4.53
2019-01-02T19:20:28.416Z,4.60
2019-01-02T19:23:10.113Z,3.50
2019-01-02T19:25:59.129Z,2.70
2019-01-02T19:28:47.959Z,4.07
2019-01-02T19:31:36.876Z,3.70
2019-01-02T19:34:25.715Z,7.53
2019-01-02T19:37:14.568Z,3.97
2019-01-02T19:40:03.645Z,3.97
2019-01-02T19:42:52.453Z,5.83
2019-01-02T19:45:22.113Z,7.10
2019-01-02T19:48:11.103Z,4.03
2019-01-02T19:50:59.959Z,3.10
2019-01-02T19:53:48.811Z,4.17
2019-01-02T19:56:37.736Z,3.70
2019-01-02T19:59:26.643Z,5.83
2019-01-02T20:02:15.493Z,3.33
2019-01-02T20:08:32.891Z,2.97
2019-01-02T20:11:21.813Z,3.53
2019-01-02T20:14:10.718Z,3.70
2019-01-02T20:16:59.570Z,3.30
2019-01-02T20:19:40.899Z,4.40
2019-01-02T20:22:29.782Z,4.67
2019-01-02T20:25:18.751Z,3.13
2019-01-02T20:28:00.253Z,2.60
2019-01-02T20:30:49.106Z,5.47
2019-01-02T20:33:38.056Z,4.80
2019-01-02T20:36:26.949Z,5.40
2019-01-02T20:38:56.529Z,5.80
2019-01-02T20:41:45.464Z,2.83
2019-01-02T20:44:34.337Z,1.83
2019-01-02T20:47:23.275Z,4.03
2019-01-02T20:50:12.067Z,4.13
2019-01-02T20:53:00.956Z,3.13
2019-01-02T20:55:49.763Z,7.27
2019-01-02T20:58:38.599Z,6.03
2019-01-02T21:01:27.426Z,3.10
2019-01-02T21:04:16.287Z,7.23
2019-01-02T21:07:05.170Z,3.97
2019-01-02T21:09:54.004Z,5.10
2019-01-02T21:12:42.831Z,5.00
2019-01-02T21:15:31.671Z,3.13
2019-01-02T21:18:20.645Z,3.87
2019-01-02T21:21:02.492Z,3.07
2019-01-02T21:23:51.279Z,8.40
2019-01-02T21:26:40.204Z,4.77
2019-01-02T21:29:29.068Z,6.37
2019-01-02T21:32:17.966Z,5.63
2019-01-02T21:35:07.073Z,5.57
2019-01-02T21:37:48.775Z,4.97
2019-01-02T21:40:37.709Z,3.17
2019-01-02T21:43:26.630Z,4.83
2019-01-02T21:46:15.468Z,3.97
2019-01-02T21:48:45.049Z,5.30
2019-01-02T21:51:33.973Z,2.90
2019-01-02T21:54:22.896Z,2.63
2019-01-02T21:57:11.452Z,4.87
2019-01-02T22:00:00.393Z,3.53
2019-01-02T22:02:49.255Z,4.70
2019-01-02T22:05:38.256Z,5.67
2019-01-02T22:08:27.067Z,6.73
2019-01-02T22:11:15.918Z,6.57
2019-01-02T22:14:04.885Z,5.30
2019-01-02T22:16:53.814Z,5.67
2019-01-02T22:19:42.750Z,6.77
2019-01-02T22:22:31.685Z,4.90
2019-01-02T22:25:20.611Z,4.90
2019-01-02T22:28:09.550Z,5.00
2019-01-02T22:30:58.514Z,7.53
2019-01-02T22:39:32.141Z,4.73
2019-01-02T22:45:24.108Z,5.10
